Time;durP1;ratioP1;P1;durP2;ratioP2;P2;SDS_P1;SDS_P2;PMS_P1;PMS_P2;Temp;Humidity;BMP_temperature;BMP_pressure;BME280_temperature;BME280_humidity;BME280_pressure;Samples;Min_cycle;Max_cycle;Signal;HPM_P1;HPM_P2
2022/01/18 00:00:47;;;;;;;;;18.40;17.60;;;;;;;;5293262;28;8758;-66
2022/01/18 00:03:18;;;;;;;;;27.00;25.00;;;;;;;;5291596;28;8773;-66
2022/01/18 00:05:50;;;;;;;;;22.00;20.40;;;;;;;;5292860;28;8766;-68
2022/01/18 00:08:21;;;;;;;;;12.60;12.60;;;;;;;;5292225;28;8805;-68
2022/01/18 00:10:52;;;;;;;;;11.20;11.20;;;;;;;;5291183;28;8827;-68
2022/01/18 00:13:37;;;;;;;;;10.00;10.00;;;;;;;;5292184;28;9480;-69
2022/01/18 00:16:12;;;;;;;;;7.80;7.80;;;;;;;;5274456;28;8742;-70
2022/01/18 00:18:48;;;;;;;;;7.80;7.80;;;;;;;;5291350;28;8763;-68
2022/01/18 00:21:32;;;;;;;;;9.00;9.00;;;;;;;;5291747;28;8765;-68
2022/01/18 00:24:06;;;;;;;;;12.80;12.60;;;;;;;;5290795;28;8782;-68
2022/01/18 00:26:37;;;;;;;;;8.80;8.80;;;;;;;;5292383;28;8817;-69
2022/01/18 00:29:11;;;;;;;;;10.00;9.75;;;;;;;;5292435;28;8778;-68
2022/01/18 00:31:54;;;;;;;;;3.40;3.40;;;;;;;;5290591;28;11393;-69
2022/01/18 00:34:29;;;;;;;;;9.40;9.40;;;;;;;;5291399;28;8785;-68
2022/01/18 00:37:23;;;;;;;;;7.00;7.00;;;;;;;;5292098;28;9453;-68
2022/01/18 00:39:52;;;;;;;;;16.80;16.20;;;;;;;;5290992;28;8778;-68
2022/01/18 00:42:23;;;;;;;;;12.80;12.80;;;;;;;;5291875;28;8758;-68
2022/01/18 00:44:54;;;;;;;;;22.00;21.80;;;;;;;;5290662;28;8786;-70
2022/01/18 00:47:25;;;;;;;;;13.40;13.00;;;;;;;;5290576;28;8905;-69
2022/01/18 00:50:00;;;;;;;;;16.00;16.00;;;;;;;;5290284;28;8758;-70
2022/01/18 00:52:35;;;;;;;;;10.20;10.20;;;;;;;;5290694;28;8763;-69
2022/01/18 00:55:06;;;;;;;;;9.60;9.60;;;;;;;;5291623;28;8751;-69
2022/01/18 00:57:37;;;;;;;;;11.60;11.60;;;;;;;;5290618;28;8789;-69
2022/01/18 01:00:08;;;;;;;;;12.75;12.75;;;;;;;;5290324;28;8786;-68
2022/01/18 01:02:39;;;;;;;;;28.40;24.20;;;;;;;;5291947;28;8785;-70
2022/01/18 01:05:10;;;;;;;;;15.75;15.75;;;;;;;;5290274;28;8771;-69
2022/01/18 01:07:42;;;;;;;;;12.40;12.40;;;;;;;;5271696;28;12128;-69
2022/01/18 01:10:12;;;;;;;;;9.00;9.00;;;;;;;;5290180;28;8774;-69
2022/01/18 01:13:02;;;;;;;;;11.60;11.60;;;;;;;;5272810;28;11393;-69
2022/01/18 01:15:41;;;;;;;;;7.00;7.00;;;;;;;;5273336;28;8866;-69
2022/01/18 01:35:16;;;;;;;;;4.00;4.00;;;;;;;;5272997;28;8783;-68
2022/01/18 01:46:36;;;;;;;;;11.60;11.00;;;;;;;;5255674;28;8797;-69
2022/01/18 01:49:14;;;;;;;;;9.00;9.00;;;;;;;;5255500;28;8776;-69
2022/01/18 01:51:47;;;;;;;;;11.20;8.20;;;;;;;;5272480;28;8796;-68
2022/01/18 01:54:18;;;;;;;;;6.60;6.60;;;;;;;;5272395;28;8815;-69
2022/01/18 01:56:49;;;;;;;;;8.20;8.20;;;;;;;;5291044;28;8796;-69
2022/01/18 01:59:20;;;;;;;;;10.00;10.00;;;;;;;;5290099;28;8788;-69
2022/01/18 02:01:51;;;;;;;;;3.00;3.00;;;;;;;;5271851;28;8778;-73
2022/01/18 02:04:22;;;;;;;;;9.00;9.00;;;;;;;;5256138;28;8788;-69
2022/01/18 02:06:53;;;;;;;;;11.40;11.40;;;;;;;;5255346;28;9594;-69
2022/01/18 02:09:24;;;;;;;;;12.00;12.00;;;;;;;;5271646;28;8951;-69
2022/01/18 02:11:56;;;;;;;;;7.00;7.00;;;;;;;;5272429;28;10696;-69
2022/01/18 02:14:30;;;;;;;;;7.40;7.40;;;;;;;;5254500;28;8784;-70
2022/01/18 02:22:39;;;;;;;;;7.40;7.40;;;;;;;;5290063;28;8772;-70
2022/01/18 02:25:10;;;;;;;;;12.25;12.25;;;;;;;;5271797;28;8871;-70
2022/01/18 02:27:41;;;;;;;;;17.50;17.25;;;;;;;;5271259;28;10125;-70
2022/01/18 02:30:12;;;;;;;;;14.00;13.50;;;;;;;;5271615;28;9366;-70
2022/01/18 02:32:43;;;;;;;;;9.60;9.60;;;;;;;;5290173;28;9413;-70
2022/01/18 02:35:14;;;;;;;;;13.80;13.80;;;;;;;;5271105;28;8814;-69
2022/01/18 02:37:50;;;;;;;;;27.80;27.80;;;;;;;;5271243;28;8784;-69
2022/01/18 02:40:21;;;;;;;;;18.00;16.00;;;;;;;;5289577;28;8787;-69
2022/01/18 02:43:02;;;;;;;;;8.00;8.00;;;;;;;;5271025;28;8895;-69
2022/01/18 02:45:32;;;;;;;;;10.00;10.00;;;;;;;;5272277;28;11426;-69
2022/01/18 02:48:04;;;;;;;;;12.75;12.75;;;;;;;;5271004;28;8820;-70
2022/01/18 02:50:34;;;;;;;;;35.20;34.20;;;;;;;;5271132;28;9055;-69
2022/01/18 02:53:24;;;;;;;;;15.40;15.40;;;;;;;;5273872;28;8784;-68
2022/01/18 02:55:56;;;;;;;;;15.00;13.00;;;;;;;;5289009;28;8769;-68
2022/01/18 02:58:31;;;;;;;;;13.20;12.80;;;;;;;;5289103;28;8781;-70
2022/01/18 03:03:37;;;;;;;;;9.80;9.80;;;;;;;;5289019;28;8849;-69
2022/01/18 03:06:08;;;;;;;;;9.80;9.00;;;;;;;;5270759;28;8772;-69
2022/01/18 03:08:39;;;;;;;;;12.00;12.00;;;;;;;;5270562;28;8805;-68
2022/01/18 03:11:10;;;;;;;;;11.60;11.20;;;;;;;;5270900;28;8769;-69
2022/01/18 03:13:41;;;;;;;;;14.80;13.00;;;;;;;;5270940;28;8904;-69
2022/01/18 03:16:12;;;;;;;;;15.25;13.50;;;;;;;;5288632;28;8773;-69
2022/01/18 03:18:43;;;;;;;;;10.60;10.00;;;;;;;;5270669;28;10158;-67
2022/01/18 03:21:14;;;;;;;;;66.60;54.60;;;;;;;;5271293;28;8784;-70
2022/01/18 03:23:51;;;;;;;;;16.50;16.25;;;;;;;;5288571;28;8911;-69
2022/01/18 03:26:31;;;;;;;;;11.60;11.60;;;;;;;;5288969;28;9834;-70
2022/01/18 03:29:02;;;;;;;;;13.00;13.00;;;;;;;;5288599;28;8777;-69
2022/01/18 03:31:33;;;;;;;;;15.25;15.25;;;;;;;;5270312;28;8792;-68
2022/01/18 03:34:04;;;;;;;;;22.50;22.50;;;;;;;;5270370;28;8893;-69
2022/01/18 03:36:35;;;;;;;;;20.60;19.20;;;;;;;;5288688;28;9709;-68
2022/01/18 03:39:06;;;;;;;;;18.25;18.25;;;;;;;;5288502;28;8786;-68
2022/01/18 03:41:37;;;;;;;;;115.75;85.00;;;;;;;;5287920;28;11456;-68
2022/01/18 03:44:08;;;;;;;;;28.25;27.50;;;;;;;;5288340;28;8751;-68
2022/01/18 03:46:39;;;;;;;;;19.60;19.60;;;;;;;;5287801;28;9556;-68
2022/01/18 03:49:10;;;;;;;;;11.40;11.40;;;;;;;;5288322;28;8893;-68
2022/01/18 03:51:41;;;;;;;;;14.00;14.00;;;;;;;;5288181;28;8799;-68
2022/01/18 03:54:14;;;;;;;;;10.00;10.00;;;;;;;;5288176;28;8780;-67
2022/01/18 03:56:44;;;;;;;;;14.60;14.60;;;;;;;;5288026;28;10247;-68
2022/01/18 03:59:34;;;;;;;;;14.80;14.80;;;;;;;;5270969;28;8785;-68
2022/01/18 04:02:07;;;;;;;;;12.00;12.00;;;;;;;;5253646;28;8804;-68
2022/01/18 04:04:38;;;;;;;;;13.40;13.00;;;;;;;;5269955;28;8911;-68
2022/01/18 04:07:09;;;;;;;;;14.80;14.80;;;;;;;;5236190;28;8884;-68
2022/01/18 04:09:40;;;;;;;;;13.40;12.40;;;;;;;;5288684;28;8819;-69
2022/01/18 04:12:11;;;;;;;;;17.40;15.60;;;;;;;;5270035;28;8837;-69
2022/01/18 04:14:43;;;;;;;;;27.40;25.00;;;;;;;;5287882;28;8784;-69
2022/01/18 04:28:37;;;;;;;;;13.00;13.00;;;;;;;;5288494;28;8780;-70
2022/01/18 04:31:09;;;;;;;;;15.00;13.80;;;;;;;;5269767;28;8784;-68
2022/01/18 04:33:40;;;;;;;;;15.00;14.20;;;;;;;;5287910;28;8764;-68
2022/01/18 04:36:11;;;;;;;;;14.75;14.75;;;;;;;;5270040;28;9561;-69
2022/01/18 04:38:42;;;;;;;;;18.40;17.60;;;;;;;;5287591;28;8845;-69
2022/01/18 04:41:17;;;;;;;;;19.60;19.60;;;;;;;;5289558;28;8957;-69
2022/01/18 04:49:14;;;;;;;;;16.00;16.00;;;;;;;;5273971;28;8864;-71
2022/01/18 04:51:46;;;;;;;;;17.40;16.20;;;;;;;;5256706;28;8788;-71
2022/01/18 04:54:17;;;;;;;;;20.20;20.20;;;;;;;;5273940;28;8791;-71
2022/01/18 04:59:19;;;;;;;;;14.80;13.00;;;;;;;;5273170;28;8789;-70
2022/01/18 05:01:51;;;;;;;;;17.00;16.50;;;;;;;;5291078;28;8762;-71
2022/01/18 05:04:22;;;;;;;;;20.40;20.40;;;;;;;;5290321;28;11474;-71
2022/01/18 05:06:58;;;;;;;;;15.00;14.60;;;;;;;;5256201;28;8793;-72
2022/01/18 05:09:29;;;;;;;;;17.40;17.00;;;;;;;;5291204;28;9515;-71
2022/01/18 05:12:13;;;;;;;;;15.00;15.00;;;;;;;;5272703;28;9608;-70
2022/01/18 05:15:08;;;;;;;;;15.40;15.40;;;;;;;;5290764;28;8754;-70
2022/01/18 05:17:59;;;;;;;;;15.20;15.20;;;;;;;;5273042;28;8828;-69
2022/01/18 05:23:38;;;;;;;;;18.20;16.40;;;;;;;;5290325;28;8774;-68
2022/01/18 05:26:09;;;;;;;;;17.50;15.75;;;;;;;;5272967;28;9542;-68
2022/01/18 05:28:40;;;;;;;;;12.20;12.00;;;;;;;;5289539;28;8805;-68
2022/01/18 05:31:11;;;;;;;;;5.40;5.40;;;;;;;;5289306;28;8832;-69
2022/01/18 05:34:01;;;;;;;;;18.80;18.80;;;;;;;;5290044;28;8790;-69
2022/01/18 05:36:32;;;;;;;;;17.40;17.40;;;;;;;;5289192;28;8794;-68
2022/01/18 05:43:33;;;;;;;;;17.60;16.20;;;;;;;;5290489;28;8716;-69
2022/01/18 05:46:04;;;;;;;;;19.40;19.40;;;;;;;;5271810;28;8813;-69
2022/01/18 05:48:53;;;;;;;;;18.80;18.80;;;;;;;;5289436;28;9441;-69
2022/01/18 05:51:24;;;;;;;;;21.75;21.75;;;;;;;;5289661;28;8780;-69
2022/01/18 05:58:06;;;;;;;;;37.40;36.00;;;;;;;;5268817;28;8804;-67
2022/01/18 06:00:39;;;;;;;;;41.25;33.25;;;;;;;;5269796;28;8800;-76
2022/01/18 06:07:33;;;;;;;;;35.40;32.80;;;;;;;;5268901;28;8798;-68
2022/01/18 06:10:23;;;;;;;;;39.00;37.80;;;;;;;;5253639;28;8755;-68
2022/01/18 06:12:54;;;;;;;;;35.00;33.40;;;;;;;;5250719;28;8786;-68
2022/01/18 06:15:25;;;;;;;;;24.80;24.80;;;;;;;;5269449;28;8886;-69
2022/01/18 06:17:56;;;;;;;;;13.00;12.25;;;;;;;;5267423;28;9488;-68
2022/01/18 06:20:27;;;;;;;;;24.40;24.00;;;;;;;;5267338;28;10076;-68
2022/01/18 06:22:59;;;;;;;;;27.60;24.60;;;;;;;;5250580;28;8816;-68
2022/01/18 06:25:30;;;;;;;;;23.00;22.50;;;;;;;;5269124;28;8795;-68
2022/01/18 06:28:01;;;;;;;;;24.75;24.75;;;;;;;;5250817;28;8798;-68
2022/01/18 06:30:32;;;;;;;;;18.60;18.60;;;;;;;;5250008;28;8763;-68
2022/01/18 06:33:03;;;;;;;;;16.40;16.40;;;;;;;;5250334;28;8775;-69
2022/01/18 06:35:34;;;;;;;;;17.75;16.25;;;;;;;;5249937;28;9456;-68
2022/01/18 06:38:05;;;;;;;;;29.50;28.00;;;;;;;;5267712;28;9561;-68
2022/01/18 06:40:36;;;;;;;;;26.60;25.00;;;;;;;;5268203;28;9934;-68
2022/01/18 06:43:07;;;;;;;;;28.40;28.40;;;;;;;;5268001;28;8786;-68
2022/01/18 06:45:38;;;;;;;;;23.00;22.50;;;;;;;;5268289;28;8768;-69
2022/01/18 06:48:09;;;;;;;;;25.00;24.75;;;;;;;;5268023;28;12300;-69
2022/01/18 06:50:40;;;;;;;;;22.80;22.80;;;;;;;;5266706;28;8764;-69
2022/01/18 06:53:11;;;;;;;;;32.20;32.20;;;;;;;;5267256;28;8804;-68
2022/01/18 06:55:42;;;;;;;;;27.75;27.75;;;;;;;;5249814;28;8773;-66
2022/01/18 06:58:13;;;;;;;;;17.00;17.00;;;;;;;;5268061;28;8868;-70
2022/01/18 07:01:02;;;;;;;;;21.60;21.60;;;;;;;;5268147;28;9448;-70
2022/01/18 07:03:33;;;;;;;;;27.40;25.40;;;;;;;;5267290;28;8789;-69
2022/01/18 07:06:05;;;;;;;;;21.20;21.20;;;;;;;;5249983;28;9480;-70
2022/01/18 07:08:36;;;;;;;;;26.00;25.20;;;;;;;;5266439;28;8828;-70
2022/01/18 07:11:07;;;;;;;;;19.00;19.00;;;;;;;;5266363;28;8749;-70
2022/01/18 07:13:38;;;;;;;;;26.80;25.20;;;;;;;;5267727;28;9466;-70
2022/01/18 07:16:09;;;;;;;;;27.20;27.20;;;;;;;;5267060;28;8779;-70
2022/01/18 07:18:40;;;;;;;;;28.75;28.75;;;;;;;;5266583;28;9530;-70
2022/01/18 07:21:12;;;;;;;;;33.40;29.60;;;;;;;;5266945;28;8761;-70
2022/01/18 07:23:43;;;;;;;;;21.60;20.00;;;;;;;;5268115;28;8889;-70
2022/01/18 07:26:33;;;;;;;;;28.20;27.80;;;;;;;;5250035;28;8775;-70
2022/01/18 07:29:22;;;;;;;;;25.80;24.80;;;;;;;;5252643;28;8794;-70
2022/01/18 07:31:53;;;;;;;;;24.60;23.40;;;;;;;;5232886;28;8855;-70
2022/01/18 07:34:24;;;;;;;;;20.75;20.75;;;;;;;;5232828;28;8786;-70
2022/01/18 07:36:55;;;;;;;;;16.40;15.80;;;;;;;;5249307;28;10365;-70
2022/01/18 07:39:26;;;;;;;;;38.25;37.25;;;;;;;;5266860;28;8863;-70
2022/01/18 07:41:57;;;;;;;;;49.00;43.00;;;;;;;;5249211;28;11574;-69
2022/01/18 07:44:29;;;;;;;;;43.20;40.80;;;;;;;;5249348;28;8883;-69
2022/01/18 07:47:00;;;;;;;;;25.40;25.40;;;;;;;;5249490;28;8820;-70
2022/01/18 07:49:31;;;;;;;;;20.20;19.40;;;;;;;;5265703;28;8907;-72
2022/01/18 07:52:03;;;;;;;;;20.40;20.00;;;;;;;;5266033;28;8792;-70
2022/01/18 07:54:34;;;;;;;;;21.60;21.60;;;;;;;;5267273;28;8768;-70
2022/01/18 07:57:05;;;;;;;;;20.20;20.20;;;;;;;;5265806;28;9463;-71
2022/01/18 07:59:36;;;;;;;;;20.00;20.00;;;;;;;;5265885;28;8811;-72
2022/01/18 08:02:07;;;;;;;;;25.40;23.80;;;;;;;;5266287;28;11480;-71
2022/01/18 08:04:38;;;;;;;;;22.50;21.75;;;;;;;;5265833;28;8773;-71
2022/01/18 08:07:09;;;;;;;;;11.80;11.60;;;;;;;;5265751;28;9149;-70
2022/01/18 08:09:40;;;;;;;;;17.25;17.25;;;;;;;;5266054;28;8911;-70
2022/01/18 08:12:11;;;;;;;;;23.00;21.75;;;;;;;;5267247;28;10488;-70
2022/01/18 08:14:45;;;;;;;;;24.20;20.80;;;;;;;;5248835;28;8788;-70
2022/01/18 08:17:16;;;;;;;;;18.80;18.00;;;;;;;;5270254;28;8853;-70
2022/01/18 08:19:50;;;;;;;;;28.00;21.40;;;;;;;;5253417;28;8776;-70
2022/01/18 08:22:21;;;;;;;;;26.75;25.25;;;;;;;;5253310;28;8768;-70
2022/01/18 08:24:54;;;;;;;;;21.40;21.00;;;;;;;;5269984;28;8800;-69
2022/01/18 08:27:25;;;;;;;;;21.00;20.60;;;;;;;;5269596;28;8936;-69
2022/01/18 08:29:56;;;;;;;;;13.50;13.50;;;;;;;;5253365;28;8789;-70
2022/01/18 08:32:27;;;;;;;;;18.50;16.25;;;;;;;;5236337;28;8975;-70
2022/01/18 08:35:17;;;;;;;;;22.20;20.40;;;;;;;;5270883;28;8763;-70
2022/01/18 08:37:48;;;;;;;;;21.80;21.80;;;;;;;;5252576;28;8785;-69
2022/01/18 08:40:19;;;;;;;;;24.50;24.50;;;;;;;;5269382;28;8792;-69
2022/01/18 08:43:08;;;;;;;;;21.60;21.60;;;;;;;;5270392;28;11545;-70
2022/01/18 08:45:39;;;;;;;;;23.60;21.40;;;;;;;;5270938;28;8890;-70
2022/01/18 08:48:10;;;;;;;;;12.25;12.25;;;;;;;;5270635;28;8872;-70
2022/01/18 08:50:41;;;;;;;;;14.75;12.50;;;;;;;;5269421;28;9447;-69
2022/01/18 08:53:11;;;;;;;;;20.00;20.00;;;;;;;;5270329;28;8788;-69
2022/01/18 08:55:42;;;;;;;;;21.00;20.50;;;;;;;;5269780;28;8756;-69
2022/01/18 08:58:13;;;;;;;;;20.75;19.25;;;;;;;;5269006;28;12233;-69
2022/01/18 09:00:46;;;;;;;;;27.40;25.80;;;;;;;;5252355;28;11478;-70
2022/01/18 09:03:16;;;;;;;;;24.40;24.40;;;;;;;;5269187;28;8848;-70
2022/01/18 09:05:51;;;;;;;;;21.60;21.60;;;;;;;;5270277;28;8864;-70
2022/01/18 09:08:22;;;;;;;;;30.80;29.00;;;;;;;;5270401;28;8943;-69
2022/01/18 09:10:53;;;;;;;;;27.40;25.40;;;;;;;;5252700;28;8782;-70
2022/01/18 09:13:24;;;;;;;;;32.75;29.25;;;;;;;;5251933;28;8783;-70
2022/01/18 09:15:55;;;;;;;;;21.75;21.75;;;;;;;;5270280;28;10520;-70
2022/01/18 09:18:26;;;;;;;;;26.80;26.80;;;;;;;;5270150;28;9495;-70
2022/01/18 09:21:00;;;;;;;;;18.20;17.60;;;;;;;;5268898;28;8756;-69
2022/01/18 09:23:31;;;;;;;;;20.80;20.80;;;;;;;;5268768;28;8760;-70
2022/01/18 09:26:02;;;;;;;;;29.60;28.60;;;;;;;;5270302;28;8812;-69
2022/01/18 09:28:51;;;;;;;;;23.80;19.00;;;;;;;;5268252;28;8831;-69
2022/01/18 09:31:22;;;;;;;;;21.25;21.25;;;;;;;;5268443;28;8804;-69
2022/01/18 09:33:53;;;;;;;;;21.25;20.00;;;;;;;;5269147;28;10876;-70
2022/01/18 09:36:24;;;;;;;;;21.50;21.50;;;;;;;;5234825;28;8887;-70
2022/01/18 09:38:54;;;;;;;;;21.50;21.25;;;;;;;;5269537;28;12220;-70
2022/01/18 09:41:30;;;;;;;;;21.00;21.00;;;;;;;;5268462;28;8820;-70
2022/01/18 09:44:01;;;;;;;;;20.00;20.00;;;;;;;;5269869;28;8869;-69
2022/01/18 09:46:32;;;;;;;;;23.25;20.00;;;;;;;;5269189;28;8784;-69
2022/01/18 09:49:22;;;;;;;;;27.60;27.60;;;;;;;;5268443;28;10564;-69
2022/01/18 09:51:53;;;;;;;;;21.60;20.80;;;;;;;;5269196;28;8776;-69
2022/01/18 09:54:24;;;;;;;;;23.60;22.20;;;;;;;;5269350;28;8902;-69
2022/01/18 09:56:56;;;;;;;;;15.25;15.25;;;;;;;;5268336;28;8800;-70
2022/01/18 09:59:27;;;;;;;;;26.20;24.20;;;;;;;;5267777;28;8745;-69
2022/01/18 10:02:02;;;;;;;;;25.40;25.00;;;;;;;;5267987;28;8769;-69
2022/01/18 10:04:53;;;;;;;;;25.60;23.60;;;;;;;;5269639;28;8792;-69
2022/01/18 10:07:32;;;;;;;;;19.40;19.20;;;;;;;;5251384;28;8804;-69
2022/01/18 10:10:05;;;;;;;;;22.20;22.20;;;;;;;;5251189;28;8771;-69
2022/01/18 10:12:36;;;;;;;;;28.60;28.20;;;;;;;;5251060;28;8807;-70
2022/01/18 10:15:10;;;;;;;;;33.75;33.25;;;;;;;;5250961;28;9522;-69
2022/01/18 10:17:44;;;;;;;;;26.40;26.20;;;;;;;;5269395;28;8783;-69
2022/01/18 10:20:20;;;;;;;;;33.00;32.40;;;;;;;;5268646;28;8781;-69
2022/01/18 10:22:50;;;;;;;;;52.20;45.80;;;;;;;;5235109;28;8776;-69
2022/01/18 10:25:22;;;;;;;;;33.25;33.25;;;;;;;;5268812;28;8793;-70
2022/01/18 10:27:55;;;;;;;;;31.80;31.80;;;;;;;;5268661;28;8901;-69
2022/01/18 10:30:44;;;;;;;;;33.60;30.60;;;;;;;;5268638;28;8819;-69
2022/01/18 10:33:47;;;;;;;;;32.40;32.40;;;;;;;;5268565;28;8787;-70
2022/01/18 10:36:20;;;;;;;;;39.80;36.00;;;;;;;;5267545;28;8789;-70
2022/01/18 10:38:59;;;;;;;;;52.75;46.00;;;;;;;;5267476;28;8894;-68
2022/01/18 10:41:31;;;;;;;;;41.40;40.60;;;;;;;;5268136;28;11474;-69
2022/01/18 10:44:05;;;;;;;;;31.60;31.40;;;;;;;;5267311;28;8811;-69
2022/01/18 10:46:37;;;;;;;;;39.20;38.40;;;;;;;;5266653;28;8788;-69
2022/01/18 10:49:09;;;;;;;;;36.00;34.00;;;;;;;;5268269;28;8855;-69
2022/01/18 10:51:42;;;;;;;;;35.40;34.00;;;;;;;;5267355;28;8784;-69
2022/01/18 10:54:13;;;;;;;;;31.00;30.80;;;;;;;;5268346;28;8819;-68
2022/01/18 10:56:46;;;;;;;;;25.75;25.75;;;;;;;;5267832;28;8789;-69
2022/01/18 10:59:24;;;;;;;;;30.20;30.20;;;;;;;;5268364;28;8850;-70
2022/01/18 11:02:12;;;;;;;;;29.00;29.00;;;;;;;;5267354;28;8895;-70
2022/01/18 11:04:47;;;;;;;;;25.20;25.00;;;;;;;;5266919;28;8760;-70
2022/01/18 11:07:19;;;;;;;;;34.40;31.00;;;;;;;;5266984;28;8812;-70
2022/01/18 11:09:51;;;;;;;;;37.80;35.20;;;;;;;;5249726;28;8772;-70
2022/01/18 11:12:26;;;;;;;;;49.60;43.40;;;;;;;;5267894;28;8752;-70
2022/01/18 11:15:05;;;;;;;;;46.40;42.80;;;;;;;;5268442;28;8773;-70
2022/01/18 11:17:40;;;;;;;;;33.60;33.60;;;;;;;;5266443;28;8806;-69
2022/01/18 11:20:16;;;;;;;;;31.00;29.60;;;;;;;;5268621;28;8788;-69
2022/01/18 11:22:50;;;;;;;;;29.20;29.20;;;;;;;;5267398;28;9480;-69
2022/01/18 11:25:22;;;;;;;;;27.20;27.20;;;;;;;;5266344;28;8788;-69
2022/01/18 11:27:56;;;;;;;;;35.20;33.60;;;;;;;;5267846;28;8824;-69
2022/01/18 11:30:32;;;;;;;;;40.80;37.40;;;;;;;;5267671;28;8785;-70
2022/01/18 11:33:05;;;;;;;;;39.20;38.20;;;;;;;;5266408;28;8768;-70
2022/01/18 11:35:48;;;;;;;;;28.60;27.80;;;;;;;;5267765;28;8812;-70
2022/01/18 11:38:42;;;;;;;;;31.20;30.60;;;;;;;;5266511;28;8789;-70
2022/01/18 11:41:22;;;;;;;;;27.00;27.00;;;;;;;;5249878;28;9344;-70
2022/01/18 11:43:55;;;;;;;;;31.20;31.00;;;;;;;;5266489;28;9474;-70
2022/01/18 11:46:52;;;;;;;;;26.60;25.80;;;;;;;;5267818;28;8802;-70
2022/01/18 11:49:24;;;;;;;;;29.80;28.60;;;;;;;;5232662;28;8922;-69
2022/01/18 11:52:05;;;;;;;;;26.60;24.60;;;;;;;;5265090;28;8800;-69
2022/01/18 11:57:21;;;;;;;;;31.20;29.40;;;;;;;;5249741;28;8799;-69
2022/01/18 11:59:59;;;;;;;;;38.40;37.00;;;;;;;;5249233;28;8789;-68
2022/01/18 12:02:52;;;;;;;;;29.40;28.60;;;;;;;;5267065;28;8771;-68
2022/01/18 12:05:26;;;;;;;;;28.40;27.00;;;;;;;;5249179;28;8786;-69
2022/01/18 12:07:58;;;;;;;;;37.20;33.40;;;;;;;;5232534;28;8860;-69
2022/01/18 12:10:31;;;;;;;;;26.20;26.00;;;;;;;;5266728;28;8771;-70
2022/01/18 12:13:13;;;;;;;;;33.00;32.00;;;;;;;;5267335;28;8759;-70
2022/01/18 12:15:45;;;;;;;;;34.80;34.00;;;;;;;;5250073;28;8787;-69
2022/01/18 12:18:18;;;;;;;;;32.60;32.60;;;;;;;;5249312;28;8844;-69
2022/01/18 12:20:51;;;;;;;;;31.60;31.60;;;;;;;;5248657;28;8781;-69
2022/01/18 12:23:41;;;;;;;;;28.80;25.80;;;;;;;;5267089;28;9485;-69
2022/01/18 12:32:39;;;;;;;;;28.60;28.60;;;;;;;;5265785;28;8797;-69
2022/01/18 12:35:17;;;;;;;;;29.40;27.60;;;;;;;;5265565;28;8912;-69
2022/01/18 12:37:49;;;;;;;;;32.60;32.60;;;;;;;;5266170;28;8776;-71
2022/01/18 12:40:24;;;;;;;;;28.40;25.60;;;;;;;;5265395;28;8789;-70
2022/01/18 12:45:36;;;;;;;;;40.00;38.20;;;;;;;;5267250;28;9471;-72
2022/01/18 12:48:09;;;;;;;;;39.80;39.80;;;;;;;;5264705;28;8851;-72
2022/01/18 12:55:04;;;;;;;;;39.40;37.60;;;;;;;;5266295;28;8695;-71
2022/01/18 12:57:35;;;;;;;;;45.20;41.40;;;;;;;;5266817;28;8793;-70
2022/01/18 13:00:24;;;;;;;;;44.20;38.60;;;;;;;;5251253;28;8745;-71
2022/01/18 13:03:01;;;;;;;;;35.50;34.75;;;;;;;;5266509;28;8799;-71
2022/01/18 13:05:52;;;;;;;;;34.40;30.80;;;;;;;;5270078;28;8773;-69
2022/01/18 13:12:46;;;;;;;;;50.20;45.60;;;;;;;;5270351;28;8691;-70
2022/01/18 13:15:34;;;;;;;;;48.60;45.20;;;;;;;;5271040;28;9442;-71
2022/01/18 13:24:02;;;;;;;;;72.40;60.80;;;;;;;;5268639;28;8768;-72
2022/01/18 13:26:44;;;;;;;;;57.40;50.20;;;;;;;;5252334;28;8772;-72
2022/01/18 13:29:18;;;;;;;;;56.80;50.20;;;;;;;;5268534;28;8802;-71
2022/01/18 13:32:00;;;;;;;;;58.00;50.00;;;;;;;;5251766;28;8796;-71
2022/01/18 13:34:31;;;;;;;;;64.60;53.00;;;;;;;;5270582;28;8850;-72
2022/01/18 13:37:04;;;;;;;;;61.00;50.60;;;;;;;;5269500;28;8784;-71
2022/01/18 13:39:39;;;;;;;;;57.20;46.80;;;;;;;;5268868;28;9452;-71
2022/01/18 13:42:11;;;;;;;;;52.60;46.60;;;;;;;;5268563;28;9510;-71
2022/01/18 13:45:19;;;;;;;;;102.60;82.00;;;;;;;;5269296;28;8785;-71
2022/01/18 13:47:52;;;;;;;;;48.60;45.80;;;;;;;;5268925;28;8876;-71
2022/01/18 13:50:38;;;;;;;;;47.60;45.40;;;;;;;;5267989;28;8772;-71
2022/01/18 13:53:12;;;;;;;;;50.00;45.60;;;;;;;;5269919;28;8783;-72
2022/01/18 13:55:51;;;;;;;;;28.80;28.80;;;;;;;;5268678;28;8801;-71
2022/01/18 13:58:28;;;;;;;;;39.00;34.40;;;;;;;;5269241;28;8778;-72
2022/01/18 14:01:14;;;;;;;;;35.20;34.60;;;;;;;;5269744;28;8767;-71
2022/01/18 14:03:46;;;;;;;;;48.60;45.00;;;;;;;;5251882;28;8752;-70
2022/01/18 14:06:18;;;;;;;;;37.80;36.80;;;;;;;;5268891;28;8775;-70
2022/01/18 14:13:27;;;;;;;;;30.80;29.80;;;;;;;;5268416;28;8721;-69
2022/01/18 14:20:20;;;;;;;;;43.40;42.60;;;;;;;;5269152;28;9623;-70
2022/01/18 14:22:54;;;;;;;;;26.00;24.75;;;;;;;;5268507;28;8875;-68
2022/01/18 14:25:31;;;;;;;;;32.40;31.00;;;;;;;;5267550;28;11491;-69
2022/01/18 14:28:09;;;;;;;;;35.20;32.80;;;;;;;;5267434;28;8964;-69
2022/01/18 14:30:43;;;;;;;;;43.00;41.20;;;;;;;;5267603;28;8800;-69
2022/01/18 14:33:14;;;;;;;;;25.40;25.40;;;;;;;;5268791;28;9584;-69
2022/01/18 14:35:45;;;;;;;;;33.00;29.40;;;;;;;;5269041;28;8773;-70
2022/01/18 14:38:16;;;;;;;;;39.20;36.40;;;;;;;;5249987;28;8797;-70
2022/01/18 14:40:48;;;;;;;;;44.00;41.50;;;;;;;;5268662;28;8819;-69
2022/01/18 14:43:28;;;;;;;;;40.20;38.60;;;;;;;;5268565;28;8764;-67
2022/01/18 14:46:06;;;;;;;;;37.00;36.40;;;;;;;;5266849;28;8777;-68
2022/01/18 14:53:00;;;;;;;;;32.20;30.40;;;;;;;;5267947;28;8713;-70
2022/01/18 14:55:31;;;;;;;;;34.00;34.00;;;;;;;;5267803;28;8792;-68
2022/01/18 14:58:04;;;;;;;;;34.60;34.60;;;;;;;;5266639;28;8887;-70
2022/01/18 15:05:00;;;;;;;;;28.40;28.40;;;;;;;;5267638;28;10748;-69
2022/01/18 15:07:49;;;;;;;;;35.00;35.00;;;;;;;;5267095;28;8808;-70
2022/01/18 15:10:22;;;;;;;;;35.25;34.25;;;;;;;;5267077;28;9664;-70
2022/01/18 15:12:53;;;;;;;;;44.60;42.00;;;;;;;;5266407;28;10427;-69
2022/01/18 15:15:29;;;;;;;;;41.00;39.20;;;;;;;;5249342;28;8784;-69
2022/01/18 15:18:00;;;;;;;;;40.80;40.20;;;;;;;;5267899;28;8803;-69
2022/01/18 15:20:50;;;;;;;;;38.40;38.40;;;;;;;;5267707;28;8876;-69
2022/01/18 15:23:21;;;;;;;;;48.75;44.25;;;;;;;;5266768;28;8938;-69
2022/01/18 15:26:11;;;;;;;;;47.40;42.60;;;;;;;;5267375;28;10041;-68
2022/01/18 15:28:42;;;;;;;;;50.80;45.60;;;;;;;;5267459;28;9656;-69
2022/01/18 15:31:34;;;;;;;;;42.80;41.20;;;;;;;;5267714;28;8788;-66
2022/01/18 15:34:05;;;;;;;;;51.75;44.50;;;;;;;;5267576;28;8789;-69
2022/01/18 15:36:36;;;;;;;;;60.75;48.00;;;;;;;;5267656;28;8932;-69
2022/01/18 15:39:07;;;;;;;;;52.40;48.00;;;;;;;;5267089;28;8826;-70
2022/01/18 15:41:39;;;;;;;;;49.25;44.25;;;;;;;;5267609;28;8765;-69
2022/01/18 15:44:28;;;;;;;;;65.60;55.00;;;;;;;;5265610;28;11424;-69
2022/01/18 15:46:59;;;;;;;;;64.25;53.50;;;;;;;;5215619;28;8795;-70
2022/01/18 15:49:30;;;;;;;;;56.50;49.25;;;;;;;;5265923;28;11490;-70
2022/01/18 15:52:20;;;;;;;;;58.00;45.60;;;;;;;;5266309;28;9542;-69
2022/01/18 15:54:52;;;;;;;;;50.50;45.50;;;;;;;;5249182;28;8918;-70
2022/01/18 15:57:23;;;;;;;;;122.00;97.25;;;;;;;;5248698;28;9647;-69
2022/01/18 15:59:54;;;;;;;;;73.75;58.25;;;;;;;;5265798;28;8797;-70
2022/01/18 16:02:26;;;;;;;;;66.00;51.60;;;;;;;;5267194;28;9177;-70
2022/01/18 16:04:57;;;;;;;;;52.80;45.00;;;;;;;;5265833;28;8812;-70
2022/01/18 16:07:28;;;;;;;;;52.25;46.50;;;;;;;;5248920;28;8800;-69
2022/01/18 16:09:59;;;;;;;;;50.25;45.25;;;;;;;;5249320;28;11465;-68
2022/01/18 16:12:30;;;;;;;;;42.50;40.75;;;;;;;;5265787;28;8768;-69
2022/01/18 16:15:01;;;;;;;;;36.00;32.20;;;;;;;;5265704;28;9330;-69
2022/01/18 16:17:51;;;;;;;;;50.20;45.00;;;;;;;;5265925;28;8876;-68
2022/01/18 16:20:23;;;;;;;;;48.40;40.60;;;;;;;;5266811;28;8867;-68
2022/01/18 16:22:54;;;;;;;;;37.20;36.60;;;;;;;;5266952;28;8776;-69
2022/01/18 16:25:25;;;;;;;;;38.00;35.75;;;;;;;;5265738;28;8811;-69
2022/01/18 16:27:56;;;;;;;;;34.80;34.80;;;;;;;;5265328;28;11564;-69
2022/01/18 16:30:27;;;;;;;;;44.60;39.00;;;;;;;;5265644;28;8792;-70
2022/01/18 16:32:58;;;;;;;;;53.60;45.60;;;;;;;;5266953;28;8773;-70
2022/01/18 16:35:30;;;;;;;;;52.50;45.75;;;;;;;;5248916;28;8798;-69
2022/01/18 16:38:02;;;;;;;;;47.80;43.00;;;;;;;;5269930;28;8800;-69
2022/01/18 16:40:33;;;;;;;;;54.20;48.20;;;;;;;;5271348;28;9547;-69
2022/01/18 16:43:05;;;;;;;;;178.00;138.75;;;;;;;;5252641;28;8773;-69
2022/01/18 16:45:37;;;;;;;;;54.40;47.60;;;;;;;;5252490;28;8900;-70
2022/01/18 16:48:08;;;;;;;;;40.00;36.20;;;;;;;;5270493;28;9531;-70
2022/01/18 16:50:39;;;;;;;;;36.50;35.75;;;;;;;;5269501;28;8773;-70
2022/01/18 16:53:10;;;;;;;;;46.40;41.80;;;;;;;;5269579;28;8800;-70
2022/01/18 16:55:40;;;;;;;;;37.50;34.00;;;;;;;;5269329;28;8905;-70
2022/01/18 16:58:11;;;;;;;;;56.20;45.20;;;;;;;;5252083;28;8796;-69
2022/01/18 17:00:42;;;;;;;;;48.75;43.75;;;;;;;;5269656;28;8794;-68
2022/01/18 17:03:13;;;;;;;;;51.75;45.75;;;;;;;;5252161;28;8849;-69
2022/01/18 17:05:44;;;;;;;;;29.25;29.25;;;;;;;;5269107;28;10085;-70